Round Prairie, North Dakota
Current Conditions -  °F | °C
As of 4:02 AM on Wednesday 26 Nov 2014 (Local Time) from KISN Reporting Station
Light Snow Light Snow  
Wind Chill: 16°   Ceiling: 3100
Heat Index: 16°   Visibility: 3mi
Dew Point: 12°   Wind: 3mph
Humidity: 84%   Direction: 360°N
Pressure: 30.25"   Gusts: NA
Location:  48.3082°N, 103.697°W
Report Text: KISN 261002Z AUTO 36003KT 3SM -SN BR FEW012 SCT017 OVC031 M09/M11 A3025 RMK AO2 P0000 T10891111
Loading
Personal Weather Stations






























Interactive Weather Map New forecast layout! Learn more

10-Day Weather Forecast

Advertisements
Track Severe Weather on mobile